Flight Track Log - Related Links

Times and Time Zones

All times are in EST time to prevent confusion due to time zone crossing. See the SWA828 flight status page for this flight to view local times or setup timezone preferences in your user account.

Time Position Orientation Groundspeed Altitude Reporting Facility
EST Latitude Longitude Course Direction KTS MPH feet Rate Location/Type
Sat 10:29:30 AM 26.0750 -80.1319 79° East 118 136 1,000  Level Miami Center
Sat 10:30:39 AM 26.0869 -80.0606 79° East 225 259 3,500 2,757 Climbing Miami Center
Sat 10:30:44 AM 26.0892 -80.0583 42° Northeast 248 285 4,400 1,500 Climbing Miami Center
Sat 10:31:39 AM 26.1431 -80.0761 344° North 262 302 5,000 590 Climbing Miami Center
Sat 10:31:45 AM 26.1472 -80.0856 296° West 265 305 5,000  Level Miami Center
Sat 10:32:39 AM 26.1900 -80.1283 318° Northwest 268 308 5,000  Level Miami Center
Sat 10:33:39 AM 26.2344 -80.1897 309° West 268 308 5,000 818 Level Miami Center
Sat 10:34:51 AM 26.2536 -80.2689 285° West 258 297 6,800 1,818 Climbing Miami Center
Sat 10:35:51 AM 26.2639 -80.3667 277° West 266 306 9,000 1,250 Climbing Miami Center
Sat 10:36:51 AM 26.2764 -80.4572 279° West 276 318 9,300 1,100 Climbing Miami Center
Sat 10:37:51 AM 26.2889 -80.5342 280° West 282 325 11,200 2,273 Climbing Miami Center
Sat 10:39:03 AM 26.3386 -80.6306 300° West 314 361 14,300 2,818 Climbing Miami Center
Sat 10:40:03 AM 26.4117 -80.7211 312° West 355 409 17,400 3,000 Climbing Miami Center
Sat 10:41:03 AM 26.5100 -80.7869 329° Northwest 368 423 20,300 2,600 Climbing Miami Center
Sat 10:42:03 AM 26.6022 -80.8481 329° Northwest 386 444 22,600 2,250 Climbing Miami Center
Sat 10:43:03 AM 26.6989 -80.9094 330° Northwest 393 452 24,800 1,950 Climbing Miami Center
Sat 10:44:03 AM 26.7892 -80.9614 333° Northwest 393 452 26,500 1,600 Climbing Miami Center
Sat 10:45:03 AM 26.8939 -81.0281 330° Northwest 403 464 28,000 1,450 Climbing Miami Center
Sat 10:46:03 AM 27.0128 -81.0975 333° Northwest 426 490 29,400 1,600 Climbing Miami Center
Sat 10:47:03 AM 27.1194 -81.1622 332° Northwest 431 496 31,200 1,800 Climbing Miami Center
Sat 10:48:03 AM 27.2283 -81.2269 332° Northwest 431 496 33,000 1,700 Climbing Miami Center
Sat 10:49:03 AM 27.3222 -81.2936 328° Northwest 436 502 34,600 1,450 Climbing Miami Center
Sat 10:50:03 AM 27.4050 -81.3833 316° Northwest 431 496 35,900 700 Climbing Miami Center
Sat 10:51:03 AM 27.4978 -81.4853 316° Northwest 419 482 36,000 50 Climbing Miami Center
Sat 10:52:03 AM 27.5825 -81.5731 317° Northwest 419 482 36,000  Level Miami Center
Sat 10:54:07 AM 27.7442 -81.7483 316° Northwest 420 483 36,000  Level Jacksonville Center
Sat 10:55:07 AM 27.8283 -81.8367 317° Northwest 415 478 36,000  Level Jacksonville Center
Sat 10:56:07 AM 27.9106 -81.9297 315° West 415 478 36,000  Level Jacksonville Center
Sat 10:57:07 AM 27.9947 -82.0206 316° Northwest 410 472 36,000  Level Jacksonville Center
Sat 10:58:07 AM 28.0850 -82.1022 321° Northwest 410 472 36,000  Level Jacksonville Center
Sat 10:59:07 AM 28.1750 -82.1839 321° Northwest 415 478 36,000  Level Jacksonville Center
Sat 11:00:07 AM 28.2672 -82.2681 321° Northwest 415 478 36,000  Level Jacksonville Center
Sat 11:01:07 AM 28.3492 -82.3547 317° Northwest 415 478 36,000  Level Jacksonville Center
Sat 11:02:07 AM 28.4331 -82.4442 317° Northwest 415 478 36,000  Level Jacksonville Center
Sat 11:03:07 AM 28.5147 -82.5336 316° Northwest 410 472 36,000  Level Jacksonville Center
Sat 11:04:07 AM 28.5983 -82.6206 318° Northwest 410 472 36,000  Level Jacksonville Center
Sat 11:05:07 AM 28.6797 -82.7081 317° Northwest 405 466 36,000  Level Jacksonville Center
Sat 11:06:07 AM 28.7614 -82.7931 318° Northwest 399 459 36,000  Level Jacksonville Center
Sat 11:07:07 AM 28.8428 -82.8783 317° Northwest 399 459 36,000  Level Jacksonville Center
Sat 11:08:07 AM 28.9261 -82.9686 317° Northwest 399 459 36,000  Level Jacksonville Center
Sat 11:09:07 AM 29.0056 -83.0564 316° Northwest 399 459 36,000  Level Jacksonville Center
Sat 11:10:07 AM 29.0908 -83.1444 318° Northwest 405 466 36,000  Level Jacksonville Center
Sat 11:11:07 AM 29.1700 -83.2325 316° Northwest 400 460 36,000  Level Jacksonville Center
Sat 11:12:07 AM 29.2594 -83.3258 318° Northwest 400 460 36,000  Level Jacksonville Center
Sat 11:13:07 AM 29.3511 -83.4025 324° Northwest 400 460 36,000  Level Jacksonville Center
Sat 11:14:07 AM 29.4467 -83.4744 327° Northwest 405 466 36,000  Level Jacksonville Center
Sat 11:15:07 AM 29.5361 -83.5514 323° Northwest 405 466 36,000  Level Jacksonville Center
Sat 11:16:07 AM 29.6150 -83.6378 316° Northwest 400 460 36,000  Level Jacksonville Center
Sat 11:17:07 AM 29.6939 -83.7269 316° Northwest 393 452 36,000  Level Jacksonville Center
Sat 11:18:07 AM 29.7767 -83.8139 318° Northwest 393 452 36,000  Level Jacksonville Center
Sat 11:19:07 AM 29.8533 -83.8983 316° Northwest 393 452 36,000  Level Jacksonville Center
Sat 11:20:07 AM 29.9319 -83.9878 315° West 393 452 36,000  Level Jacksonville Center
Sat 11:21:07 AM 30.0147 -84.0753 318° Northwest 393 452 36,000  Level Jacksonville Center
Sat 11:22:07 AM 30.0911 -84.1625 315° West 393 452 36,000  Level Jacksonville Center
Sat 11:23:07 AM 30.1675 -84.2475 316° Northwest 393 452 36,000  Level Jacksonville Center
Sat 11:24:07 AM 30.2436 -84.3378 314° West 393 452 36,000  Level Jacksonville Center
Sat 11:25:07 AM 30.3158 -84.4158 317° Northwest 393 452 36,000  Level Jacksonville Center
Sat 11:26:07 AM 30.3961 -84.5036 317° Northwest 393 452 36,000  Level Jacksonville Center
Sat 11:27:07 AM 30.4722 -84.5917 315° West 393 452 36,000  Level Jacksonville Center
Sat 11:28:07 AM 30.5525 -84.6800 317° Northwest 393 452 36,000  Level Jacksonville Center
Sat 11:29:07 AM 30.6306 -84.7661 317° Northwest 393 452 36,000  Level Jacksonville Center
Sat 11:30:07 AM 30.7044 -84.8519 315° West 393 452 36,000  Level Jacksonville Center
Sat 11:31:07 AM 30.7825 -84.9406 316° Northwest 393 452 36,000  Level Jacksonville Center
Sat 11:33:07 AM 30.9319 -85.1111 316° Northwest 381 438 36,000  Level Jacksonville Center
Sat 11:34:07 AM 31.0058 -85.1928 317° Northwest 381 438 36,000  Level Jacksonville Center
Sat 11:35:07 AM 31.0814 -85.2844 314° West 381 438 36,000 393 Level Jacksonville Center
Sat 11:37:10 AM 31.2417 -85.4669 316° Northwest 383 441 37,200 689 Climbing Atlanta Center
Sat 11:38:10 AM 31.3158 -85.5556 314° West 383 441 38,100 800 Climbing Atlanta Center
Sat 11:39:10 AM 31.3939 -85.6419 317° Northwest 383 441 38,800 850 Climbing Atlanta Center
Sat 11:40:10 AM 31.4700 -85.7311 315° West 383 441 39,800 600 Climbing Atlanta Center
Sat 11:41:10 AM 31.5439 -85.8200 314° West 383 441 40,000 100 Climbing Atlanta Center
Sat 11:42:10 AM 31.6197 -85.9069 316° Northwest 383 441 40,000  Level Atlanta Center
Sat 11:43:10 AM 31.6956 -85.9964 315° West 383 441 40,000  Level Atlanta Center
Sat 11:44:10 AM 31.7694 -86.0811 316° Northwest 383 441 40,000  Level Atlanta Center
Sat 11:45:10 AM 31.8411 -86.1681 314° West 378 435 40,000  Level Atlanta Center
Sat 11:46:10 AM 31.9167 -86.2556 316° Northwest 378 435 40,000  Level Atlanta Center
Sat 11:47:10 AM 31.9881 -86.3406 315° West 378 435 40,000  Level Atlanta Center
Sat 11:48:10 AM 32.0597 -86.4208 316° Northwest 383 441 40,000  Level Atlanta Center
Sat 11:49:10 AM 32.1311 -86.5036 316° Northwest 388 447 40,000  Level Atlanta Center
Sat 11:50:10 AM 32.2044 -86.5917 315° West 376 433 40,000  Level Atlanta Center
Sat 11:51:10 AM 32.2778 -86.6797 315° West 370 426 40,000  Level Atlanta Center
Sat 11:52:10 AM 32.3531 -86.7706 314° West 359 413 40,000  Level Atlanta Center
Sat 11:53:10 AM 32.4242 -86.8539 315° West 359 413 40,000  Level Atlanta Center
Sat 11:54:10 AM 32.4972 -86.9425 314° West 359 413 40,000  Level Atlanta Center
Sat 11:55:10 AM 32.5703 -87.0286 315° West 359 413 40,000  Level Atlanta Center
Sat 11:56:10 AM 32.6453 -87.1175 315° West 359 413 40,000  Level Atlanta Center
Sat 11:57:10 AM 32.7161 -87.2064 313° West 364 419 40,000  Level Atlanta Center
Sat 11:58:10 AM 32.7889 -87.2956 314° West 364 419 40,000  Level Atlanta Center
Sat 11:59:10 AM 32.8619 -87.3822 315° West 369 425 40,000  Level Atlanta Center
Sat 12:00:10 PM 32.9325 -87.4714 313° West 369 425 40,000  Level Atlanta Center
Sat 12:02:06 PM 33.0750 -87.6447 314° West 375 432 40,000  Level Memphis Center
Sat 12:03:08 PM 33.1486 -87.7336 315° West 375 432 40,000  Level Memphis Center
Sat 12:04:10 PM 33.2197 -87.8222 314° West 375 432 40,000  Level Memphis Center
Sat 12:05:12 PM 33.2911 -87.9103 314° West 371 427 40,000  Level Memphis Center
Sat 12:06:15 PM 33.3631 -87.9981 314° West 371 427 40,000  Level Memphis Center
Sat 12:07:17 PM 33.4347 -88.0878 314° West 371 427 40,000  Level Memphis Center
Sat 12:08:19 PM 33.5067 -88.1767 314° West 371 427 40,000  Level Memphis Center
Sat 12:09:21 PM 33.5936 -88.2847 314° West 372 428 40,000  Level Memphis Center
Sat 12:10:23 PM 33.6656 -88.3753 314° West 372 428 40,000  Level Memphis Center
Sat 12:11:25 PM 33.7383 -88.4667 314° West 373 429 40,000  Level Memphis Center
Sat 12:12:27 PM 33.8122 -88.5586 314° West 375 432 40,000  Level Memphis Center
Sat 12:13:29 PM 33.8844 -88.6506 313° West 376 433 40,000  Level Memphis Center
Sat 12:14:31 PM 33.9592 -88.7450 314° West 381 438 40,000  Level Memphis Center
Sat 12:15:33 PM 34.0450 -88.8519 314° West 385 443 40,000  Level Memphis Center
Sat 12:16:35 PM 34.1200 -88.9475 313° West 388 447 40,000  Level Memphis Center
Sat 12:17:37 PM 34.1939 -89.0425 313° West 389 448 40,000  Level Memphis Center
Sat 12:18:39 PM 34.2689 -89.1389 313° West 389 448 40,000  Level Memphis Center
Sat 12:19:41 PM 34.3611 -89.2547 314° West 394 453 40,000  Level Memphis Center
Sat 12:20:43 PM 34.4364 -89.3536 313° West 395 455 40,000  Level Memphis Center
Sat 12:21:45 PM 34.5117 -89.4517 313° West 395 455 40,000  Level Memphis Center
Sat 12:22:47 PM 34.5881 -89.5481 314° West 396 456 40,000  Level Memphis Center
Sat 12:23:49 PM 34.6631 -89.6469 313° West 396 456 40,000  Level Memphis Center
Sat 12:24:51 PM 34.7419 -89.7483 313° West 397 457 40,000  Level Memphis Center
Sat 12:25:53 PM 34.8181 -89.8469 313° West 397 457 40,000  Level Memphis Center
Sat 12:26:55 PM 34.8967 -89.9497 313° West 397 457 40,000  Level Memphis Center
Sat 12:27:57 PM 34.9714 -90.0467 313° West 396 456 40,000  Level Memphis Center
Sat 12:28:59 PM 35.0611 -90.1656 313° West 395 455 40,000  Level Memphis Center
Sat 12:30:02 PM 35.1353 -90.2631 313° West 395 455 40,000  Level Memphis Center
Sat 12:31:04 PM 35.2094 -90.3625 312° West 395 455 40,000  Level Memphis Center
Sat 12:32:06 PM 35.2847 -90.4617 313° West 395 455 40,000  Level Memphis Center
Sat 12:33:08 PM 35.3592 -90.5614 312° West 396 456 40,000  Level Memphis Center
Sat 12:34:10 PM 35.4494 -90.6806 313° West 396 456 40,000  Level Memphis Center
Sat 12:35:12 PM 35.5239 -90.7803 313° West 396 456 40,000  Level Memphis Center
Sat 12:36:14 PM 35.5981 -90.8797 313° West 396 456 40,000  Level Memphis Center
Sat 12:37:16 PM 35.6714 -90.9803 312° West 396 456 40,000  Level Memphis Center
Sat 12:38:18 PM 35.7450 -91.0806 312° West 396 456 40,000  Level Memphis Center
Sat 12:39:20 PM 35.8200 -91.1811 313° West 396 456 40,000  Level Memphis Center
Sat 12:40:22 PM 35.9106 -91.3025 313° West 396 456 40,000  Level Memphis Center
Sat 12:41:24 PM 35.9844 -91.4050 312° West 396 456 40,000  Level Memphis Center
Sat 12:42:26 PM 36.0594 -91.5081 312° West 398 458 40,000  Level Memphis Center
Sat 12:43:28 PM 36.1442 -91.6019 318° Northwest 403 464 40,000  Level Memphis Center
Sat 12:44:30 PM 36.2328 -91.6947 320° Northwest 407 468 40,000  Level Memphis Center
Sat 12:45:32 PM 36.3281 -91.7958 319° Northwest 413 475 40,000  Level Memphis Center
Sat 12:46:34 PM 36.4156 -91.8894 319° Northwest 414 476 40,000  Level Memphis Center
Sat 12:47:37 PM 36.5103 -91.9906 319° Northwest 417 480 40,000  Level Memphis Center
Sat 12:48:39 PM 36.5983 -92.0844 319° Northwest 416 479 40,000  Level Memphis Center
Sat 12:49:41 PM 36.6856 -92.1778 319° Northwest 416 479 40,000  Level Memphis Center
Sat 12:50:43 PM 36.7717 -92.2719 319° Northwest 415 478 40,000  Level Memphis Center
Sat 12:51:45 PM 36.8575 -92.3647 319° Northwest 411 473 40,000  Level Memphis Center
Sat 12:52:47 PM 36.9617 -92.4783 319° Northwest 411 473 40,000  Level Memphis Center
Sat 12:53:49 PM 37.0494 -92.5739 319° Northwest 411 473 40,000  Level Memphis Center
Sat 12:54:51 PM 37.1369 -92.6689 319° Northwest 411 473 40,000  Level Memphis Center
Sat 12:55:53 PM 37.2258 -92.7658 319° Northwest 414 476 40,000  Level Memphis Center
Sat 12:56:55 PM 37.3142 -92.8628 319° Northwest 416 479 40,000  Level Memphis Center
Sat 12:58:07 PM 37.4203 -92.9792 319° Northwest 417 480 40,000 -179 Level Kansas City Center
Sat 12:59:09 PM 37.5083 -93.0781 318° Northwest 417 480 39,600 -629 Descending Kansas City Center
Sat 01:00:11 PM 37.5958 -93.1733 319° Northwest 417 480 38,700 -1,016 Descending Kansas City Center
Sat 01:01:13 PM 37.6811 -93.2689 318° Northwest 413 475 37,500 -1,887 Descending Kansas City Center
Sat 01:02:15 PM 37.7653 -93.3631 319° Northwest 405 466 34,800 -2,903 Descending Kansas City Center
Sat 01:03:17 PM 37.8650 -93.4744 319° Northwest 399 459 31,500 -2,661 Descending Kansas City Center
Sat 01:04:19 PM 37.9489 -93.5697 318° Northwest 399 459 29,300 -2,226 Descending Kansas City Center
Sat 01:05:21 PM 38.0369 -93.6689 318° Northwest 415 478 26,900 -2,274 Descending Kansas City Center
Sat 01:06:23 PM 38.1222 -93.7608 320° Northwest 406 467 24,600 -2,177 Descending Kansas City Center
Sat 01:07:25 PM 38.2222 -93.8189 335° Northwest 397 457 22,400 -2,081 Descending Kansas City Center
Sat 01:08:27 PM 38.3189 -93.8742 336° Northwest 384 442 20,300 -2,016 Descending Kansas City Center
Sat 01:09:30 PM 38.4108 -93.9275 336° Northwest 369 425 18,200 -1,968 Descending Kansas City Center
Sat 01:10:32 PM 38.5042 -93.9789 337° Northwest 356 410 16,200 -2,129 Descending Kansas City Center
Sat 01:11:34 PM 38.5997 -94.0350 335° Northwest 339 390 13,800 -2,032 Descending Kansas City Center
Sat 01:12:36 PM 38.6792 -94.0814 335° Northwest 331 381 12,000 -1,210 Descending Kansas City Center
Sat 01:13:38 PM 38.7550 -94.1597 321° Northwest 316 364 11,300 -823 Descending Kansas City Center
Sat 01:14:40 PM 38.8133 -94.2253 319° Northwest 293 337 10,300 -1,065 Descending Kansas City Center
Sat 01:15:42 PM 38.8667 -94.3158 307° West 287 330 9,100 -1,113 Descending Kansas City Center
Sat 01:16:44 PM 38.9117 -94.3894 308° West 277 319 8,000 -1,113 Descending Kansas City Center
Sat 01:17:46 PM 38.9633 -94.4753 308° West 274 315 6,800 -1,113 Descending Kansas City Center
Sat 01:18:48 PM 39.0058 -94.5456 308° West 264 304 5,700 -1,258 Descending Kansas City Center
Sat 01:19:50 PM 39.0558 -94.6267 308° West 262 302 4,200 -823 Descending Kansas City Center
Sat 01:20:52 PM 39.0950 -94.6906 308° West 239 275 4,000 -242 Descending Kansas City Center
Sat 01:21:54 PM 39.1361 -94.7486 312° West 204 235 3,700 -435 Descending Kansas City Center
Sat 01:22:56 PM 39.1842 -94.7378 10° North 184 212 3,100 -823 Descending Kansas City Center
Sat 01:23:58 PM 39.2344 -94.7231 13° North 166 191 2,000 -816 Descending Kansas City Center
Sat 01:25:01 PM 39.2667 -94.7136 13° North 128 147 1,400 -480 Descending Kansas City Center
Sat 01:26:03 PM 39.3006 -94.7036 13° North 128 147 1,000 -387 Descending Kansas City Center

Login

Don't have an account? Register now (free) for customized features, flight alerts, and more!